createdAt,value
2023-02-23T00:00:32.682Z,6.70
2023-02-23T00:03:01.819Z,6.60
2023-02-23T00:05:31.006Z,6.60
2023-02-23T00:07:58.342Z,6.60
2023-02-23T00:10:31.590Z,6.70
2023-02-23T00:12:59.509Z,6.70
2023-02-23T00:15:29.912Z,6.60
2023-02-23T00:17:57.922Z,6.60
2023-02-23T00:20:27.686Z,6.60
2023-02-23T00:22:56.346Z,6.60
2023-02-23T00:25:25.074Z,6.50
2023-02-23T00:27:52.476Z,6.50
2023-02-23T00:30:20.298Z,6.50
2023-02-23T00:32:47.181Z,6.50
2023-02-23T00:35:19.828Z,6.50
2023-02-23T00:37:48.632Z,6.50
2023-02-23T00:40:21.393Z,6.50
2023-02-23T00:42:50.069Z,6.40
2023-02-23T00:45:16.925Z,6.40
2023-02-23T00:47:44.969Z,6.30
2023-02-23T00:50:15.208Z,6.40
2023-02-23T00:52:43.552Z,6.40
2023-02-23T00:55:15.147Z,6.40
2023-02-23T00:57:42.067Z,6.40
2023-02-23T01:00:20.413Z,6.40
2023-02-23T01:02:48.530Z,6.40
2023-02-23T01:05:16.663Z,6.50
2023-02-23T01:07:46.465Z,6.50
2023-02-23T01:10:19.765Z,6.50
2023-02-23T01:12:51.085Z,6.50
2023-02-23T01:15:19.233Z,6.60
2023-02-23T01:17:46.499Z,6.60
2023-02-23T01:20:19.408Z,6.60
2023-02-23T01:22:51.615Z,6.70
2023-02-23T01:25:19.096Z,6.70
2023-02-23T01:27:45.774Z,6.70
2023-02-23T01:30:14.915Z,6.70
2023-02-23T01:32:42.039Z,6.70
2023-02-23T01:35:10.834Z,6.70
2023-02-23T01:37:40.647Z,6.60
2023-02-23T01:40:14.809Z,6.60
2023-02-23T01:42:44.646Z,6.60
2023-02-23T01:45:36.060Z,6.60
2023-02-23T01:48:07.733Z,7.40
2023-02-23T01:50:44.109Z,6.60
2023-02-23T01:53:11.647Z,6.60
2023-02-23T01:55:39.061Z,6.60
2023-02-23T01:58:15.352Z,6.60
2023-02-23T02:00:47.393Z,6.60
2023-02-23T02:03:22.808Z,6.70
2023-02-23T02:05:51.221Z,6.70
2023-02-23T02:08:19.193Z,6.70
2023-02-23T02:10:47.308Z,6.80
2023-02-23T02:13:20.676Z,6.80
2023-02-23T02:16:19.308Z,6.80
2023-02-23T02:19:08.894Z,6.80
2023-02-23T02:21:48.960Z,6.70
2023-02-23T02:24:42.605Z,6.70
2023-02-23T02:27:21.048Z,6.60
2023-02-23T02:30:01.760Z,6.60
2023-02-23T02:33:06.087Z,6.60
2023-02-23T02:35:58.450Z,6.60
2023-02-23T02:38:56.048Z,6.50
2023-02-23T02:41:31.253Z,6.50
2023-02-23T02:44:15.659Z,6.50
2023-02-23T02:46:48.184Z,6.50
2023-02-23T02:49:37.596Z,6.50
2023-02-23T02:52:17.763Z,6.50
2023-02-23T02:55:16.111Z,6.50
2023-02-23T02:57:46.781Z,6.50
2023-02-23T03:00:38.260Z,6.50
2023-02-23T03:03:23.727Z,6.50
2023-02-23T03:06:13.280Z,6.50
2023-02-23T03:09:11.907Z,6.50
2023-02-23T03:12:11.996Z,6.50
2023-02-23T03:15:09.603Z,6.50
2023-02-23T03:18:06.187Z,6.50
2023-02-23T03:20:51.705Z,6.40
2023-02-23T03:23:37.154Z,6.40
2023-02-23T03:26:49.171Z,6.30
2023-02-23T03:29:50.844Z,6.30
2023-02-23T03:32:52.119Z,6.20
2023-02-23T03:36:12.553Z,6.20
2023-02-23T03:39:12.562Z,6.20
2023-02-23T03:42:01.748Z,6.10
2023-02-23T03:44:51.673Z,6.10
2023-02-23T03:47:41.912Z,6.00
2023-02-23T03:50:33.535Z,6.00
2023-02-23T03:53:20.846Z,6.00
2023-02-23T03:56:11.731Z,6.00
2023-02-23T03:59:03.027Z,6.10
2023-02-23T04:01:51.034Z,6.10
2023-02-23T04:04:38.897Z,6.10
2023-02-23T04:07:26.440Z,6.10
2023-02-23T04:10:11.977Z,6.00
2023-02-23T04:13:16.827Z,6.00
2023-02-23T04:16:03.656Z,6.00
2023-02-23T04:18:34.154Z,5.90
2023-02-23T04:21:01.340Z,5.90
2023-02-23T04:23:28.875Z,5.90
2023-02-23T04:25:56.217Z,5.90
2023-02-23T04:28:25.114Z,6.00
2023-02-23T04:30:55.484Z,6.00
2023-02-23T04:33:24.080Z,6.00
2023-02-23T04:35:53.939Z,6.00
2023-02-23T04:38:21.438Z,6.00
2023-02-23T04:40:48.278Z,6.00
2023-02-23T04:43:15.293Z,6.10
2023-02-23T04:45:42.192Z,6.10
2023-02-23T04:48:08.935Z,6.10
2023-02-23T04:50:36.041Z,6.10
2023-02-23T04:53:02.795Z,6.10
2023-02-23T04:55:29.514Z,6.10
2023-02-23T04:58:01.318Z,6.10
2023-02-23T05:00:29.511Z,6.10
2023-02-23T05:02:57.423Z,6.10
2023-02-23T05:05:24.228Z,6.00
2023-02-23T05:07:50.970Z,6.10
2023-02-23T05:10:17.711Z,6.00
2023-02-23T05:12:44.599Z,6.00
2023-02-23T05:15:11.556Z,6.00
2023-02-23T05:17:41.279Z,6.00
2023-02-23T05:20:10.924Z,6.00
2023-02-23T05:22:37.932Z,5.90
2023-02-23T05:25:07.487Z,5.90
2023-02-23T05:27:34.429Z,6.00
2023-02-23T05:30:01.572Z,6.00
2023-02-23T05:32:29.568Z,5.90
2023-02-23T05:34:58.764Z,5.90
2023-02-23T05:37:25.513Z,5.90
2023-02-23T05:39:52.187Z,5.90
2023-02-23T05:42:19.001Z,5.90
2023-02-23T05:44:45.721Z,5.90
2023-02-23T05:47:12.475Z,5.90
2023-02-23T05:49:41.240Z,5.90
2023-02-23T05:52:09.284Z,5.90
2023-02-23T05:54:35.935Z,6.00
2023-02-23T05:57:02.641Z,6.00
2023-02-23T05:59:29.333Z,6.00
2023-02-23T06:01:56.065Z,5.90
2023-02-23T06:04:23.363Z,6.00
2023-02-23T06:06:50.250Z,5.90
2023-02-23T06:09:17.099Z,5.90
2023-02-23T06:11:44.640Z,5.90
2023-02-23T06:14:11.428Z,5.80
2023-02-23T06:16:38.427Z,5.80
2023-02-23T06:19:05.346Z,5.80
2023-02-23T06:21:32.540Z,5.70
2023-02-23T06:24:00.700Z,5.70
2023-02-23T06:26:27.979Z,5.80
2023-02-23T06:28:55.304Z,5.70
2023-02-23T06:31:22.234Z,5.70
2023-02-23T06:33:49.081Z,5.70
2023-02-23T06:36:15.812Z,5.90
2023-02-23T06:38:42.501Z,5.70
2023-02-23T06:41:10.277Z,5.80
2023-02-23T06:43:37.001Z,5.80
2023-02-23T06:46:04.627Z,5.90
2023-02-23T06:48:31.730Z,5.90
2023-02-23T06:50:59.953Z,6.00
2023-02-23T06:53:26.887Z,6.00
2023-02-23T06:55:54.703Z,6.10
2023-02-23T06:58:21.440Z,6.20
2023-02-23T07:00:48.284Z,6.20
2023-02-23T07:03:15.000Z,6.30
2023-02-23T07:05:41.714Z,6.30
2023-02-23T07:08:08.474Z,6.40
2023-02-23T07:10:35.283Z,6.40
2023-02-23T07:13:02.095Z,6.50
2023-02-23T07:15:28.875Z,6.50
2023-02-23T07:17:55.573Z,6.60
2023-02-23T07:20:22.323Z,6.60
2023-02-23T07:22:49.031Z,6.70
2023-02-23T07:25:15.797Z,6.80
2023-02-23T07:27:42.604Z,6.80
2023-02-23T07:30:09.870Z,6.90
2023-02-23T07:32:36.706Z,7.00
2023-02-23T07:35:04.639Z,7.00
2023-02-23T07:37:31.576Z,7.10
2023-02-23T07:40:00.117Z,7.10
2023-02-23T07:42:27.828Z,7.20
2023-02-23T07:44:54.518Z,7.30
2023-02-23T07:47:22.721Z,7.40
2023-02-23T07:49:49.464Z,7.50
2023-02-23T07:52:18.853Z,7.50
2023-02-23T07:54:45.549Z,7.70
2023-02-23T07:57:12.925Z,7.70
2023-02-23T07:59:39.674Z,7.70
2023-02-23T08:02:07.116Z,7.80
2023-02-23T08:04:33.845Z,7.80
2023-02-23T08:07:00.654Z,7.80
2023-02-23T08:09:27.340Z,7.90
2023-02-23T08:11:54.104Z,8.00
2023-02-23T08:14:23.603Z,8.00
2023-02-23T08:16:51.630Z,8.10
2023-02-23T08:19:18.551Z,8.10
2023-02-23T08:21:45.288Z,8.10
2023-02-23T08:24:11.992Z,8.20
2023-02-23T08:26:38.784Z,8.30
2023-02-23T08:29:05.784Z,8.30
2023-02-23T08:31:32.873Z,8.30
2023-02-23T08:33:59.962Z,8.30
2023-02-23T08:36:26.769Z,8.40
2023-02-23T08:38:54.313Z,8.40
2023-02-23T08:41:21.940Z,8.40
2023-02-23T08:43:49.176Z,8.50
2023-02-23T08:46:18.604Z,8.50
2023-02-23T08:48:46.691Z,8.50
2023-02-23T08:51:14.676Z,8.50
2023-02-23T08:53:41.508Z,8.50
2023-02-23T08:56:08.740Z,8.60
2023-02-23T08:58:38.882Z,8.60
2023-02-23T09:01:06.104Z,8.60
2023-02-23T09:03:38.244Z,8.60
2023-02-23T09:06:13.415Z,8.70
2023-02-23T09:08:40.349Z,8.60
2023-02-23T09:11:07.020Z,8.70
2023-02-23T09:13:33.873Z,8.70
2023-02-23T09:16:00.634Z,8.80
2023-02-23T09:18:29.570Z,8.90
2023-02-23T09:20:57.052Z,9.10
2023-02-23T09:23:24.308Z,9.20
2023-02-23T09:25:51.051Z,9.30
2023-02-23T09:28:19.399Z,9.40
2023-02-23T09:30:46.908Z,9.50
2023-02-23T09:33:14.157Z,9.50
2023-02-23T09:35:41.627Z,9.60
2023-02-23T09:38:08.682Z,9.60
2023-02-23T09:40:58.583Z,9.70
2023-02-23T09:43:50.744Z,9.70
2023-02-23T09:46:26.969Z,9.80
2023-02-23T09:48:56.792Z,9.80
2023-02-23T09:51:24.849Z,9.90
2023-02-23T09:53:55.048Z,10.00
2023-02-23T09:56:34.875Z,10.10
2023-02-23T09:59:02.501Z,10.20
2023-02-23T10:01:54.183Z,10.30
2023-02-23T10:04:59.601Z,10.30
2023-02-23T10:07:54.125Z,10.40
2023-02-23T10:10:27.951Z,10.40
2023-02-23T10:13:27.493Z,10.40
2023-02-23T10:16:01.042Z,10.40
2023-02-23T10:18:50.218Z,10.50
2023-02-23T10:21:35.499Z,10.70
2023-02-23T10:24:14.177Z,10.70
2023-02-23T10:26:52.136Z,10.70
2023-02-23T10:29:37.261Z,10.80
2023-02-23T10:32:23.595Z,10.80
2023-02-23T10:34:54.362Z,11.10
2023-02-23T10:37:21.306Z,11.10
2023-02-23T10:39:49.942Z,11.10
2023-02-23T10:42:23.102Z,11.30
2023-02-23T10:44:50.367Z,11.30
2023-02-23T10:47:21.259Z,11.30
2023-02-23T10:49:54.595Z,11.50
2023-02-23T10:52:24.272Z,11.50
2023-02-23T10:54:52.046Z,11.50
2023-02-23T10:57:27.878Z,11.60
2023-02-23T11:00:06.334Z,11.60
2023-02-23T11:02:33.876Z,11.70
2023-02-23T11:05:02.107Z,11.80
2023-02-23T11:07:31.289Z,11.80
2023-02-23T11:10:26.065Z,11.80
2023-02-23T11:12:52.995Z,11.90
2023-02-23T11:15:46.434Z,11.80
2023-02-23T11:18:23.530Z,11.70
2023-02-23T11:20:51.133Z,11.80
2023-02-23T11:23:37.890Z,11.90
2023-02-23T11:26:23.048Z,12.10
2023-02-23T11:28:55.953Z,12.10
2023-02-23T11:31:32.176Z,12.10
2023-02-23T11:33:59.603Z,12.10
2023-02-23T11:36:30.078Z,12.20
2023-02-23T11:39:27.976Z,12.20
2023-02-23T11:42:05.209Z,12.20
2023-02-23T11:44:33.687Z,12.20
2023-02-23T11:47:01.524Z,12.10
2023-02-23T11:49:36.125Z,12.00
2023-02-23T11:52:03.312Z,12.00
2023-02-23T11:54:36.166Z,12.00
2023-02-23T11:57:10.164Z,11.90
2023-02-23T11:59:40.255Z,11.80
2023-02-23T12:02:23.149Z,11.60
2023-02-23T12:05:06.399Z,11.50
2023-02-23T12:07:55.665Z,11.40
2023-02-23T12:10:42.478Z,11.20
2023-02-23T12:13:39.912Z,11.10
2023-02-23T12:16:24.913Z,11.10
2023-02-23T12:19:04.309Z,11.10
2023-02-23T12:21:48.438Z,11.10
2023-02-23T12:24:33.744Z,11.20
2023-02-23T12:27:12.879Z,11.20
2023-02-23T12:29:54.873Z,11.30
2023-02-23T12:32:28.066Z,11.30
2023-02-23T12:35:02.446Z,11.40
2023-02-23T12:37:37.023Z,11.40
2023-02-23T12:40:28.377Z,11.40
2023-02-23T12:43:17.330Z,11.30
2023-02-23T12:46:02.795Z,11.30
2023-02-23T12:49:02.454Z,11.30
2023-02-23T12:51:38.889Z,11.30
2023-02-23T12:54:05.886Z,11.40
2023-02-23T12:56:43.866Z,11.40
2023-02-23T12:59:22.970Z,11.50
2023-02-23T13:01:58.625Z,11.60
2023-02-23T13:04:30.434Z,11.70
2023-02-23T13:07:10.710Z,11.80
2023-02-23T13:10:12.533Z,12.00
2023-02-23T13:13:05.333Z,12.10
2023-02-23T13:16:00.271Z,12.10
2023-02-23T13:18:29.822Z,12.20
2023-02-23T13:20:59.353Z,12.30
2023-02-23T13:23:33.584Z,12.20
2023-02-23T13:26:13.514Z,12.10
2023-02-23T13:29:22.447Z,12.20
2023-02-23T13:31:50.071Z,12.20
2023-02-23T13:34:28.527Z,12.20
2023-02-23T13:36:56.513Z,12.20
2023-02-23T13:39:47.811Z,12.20
2023-02-23T13:42:28.115Z,12.20
2023-02-23T13:45:20.541Z,12.20
2023-02-23T13:48:06.662Z,12.30
2023-02-23T13:50:47.551Z,12.40
2023-02-23T13:53:39.845Z,12.30
2023-02-23T13:56:09.570Z,12.30
2023-02-23T13:58:37.951Z,12.30
2023-02-23T14:01:14.650Z,12.20
2023-02-23T14:03:47.534Z,12.20
2023-02-23T14:06:18.206Z,12.20
2023-02-23T14:08:52.569Z,12.20
2023-02-23T14:11:30.009Z,12.20
2023-02-23T14:14:03.169Z,12.30
2023-02-23T14:16:30.772Z,12.20
2023-02-23T14:19:03.486Z,12.30
2023-02-23T14:21:35.442Z,12.20
2023-02-23T14:24:17.595Z,12.10
2023-02-23T14:27:02.380Z,12.10
2023-02-23T14:29:41.511Z,12.00
2023-02-23T14:32:11.525Z,11.90
2023-02-23T14:34:59.464Z,11.80
2023-02-23T14:37:32.038Z,11.70
2023-02-23T14:40:21.015Z,11.50
2023-02-23T14:42:51.708Z,11.50
2023-02-23T14:45:20.533Z,11.40
2023-02-23T14:47:50.942Z,11.30
2023-02-23T14:50:28.160Z,11.30
2023-02-23T14:52:57.160Z,11.30
2023-02-23T14:55:27.936Z,11.10
2023-02-23T14:57:56.005Z,11.10
2023-02-23T15:00:28.903Z,11.10
2023-02-23T15:02:59.229Z,11.00
2023-02-23T15:05:52.765Z,11.00
2023-02-23T15:08:23.226Z,10.90
2023-02-23T15:10:59.200Z,10.80
2023-02-23T15:13:32.218Z,10.90
2023-02-23T15:16:05.526Z,10.80
2023-02-23T15:19:28.897Z,10.80
2023-02-23T15:21:58.192Z,10.70
2023-02-23T15:24:33.116Z,10.70
2023-02-23T15:27:00.013Z,10.60
2023-02-23T15:29:33.173Z,10.60
2023-02-23T15:32:14.917Z,10.60
2023-02-23T15:34:42.011Z,10.60
2023-02-23T15:37:34.002Z,10.60
2023-02-23T15:40:04.917Z,10.60
2023-02-23T15:42:44.993Z,10.50
2023-02-23T15:45:17.065Z,10.60
2023-02-23T15:47:44.146Z,10.60
2023-02-23T15:50:36.604Z,10.60
2023-02-23T15:53:15.809Z,10.60
2023-02-23T15:55:44.235Z,10.60
2023-02-23T15:58:20.872Z,10.70
2023-02-23T16:00:55.531Z,10.70
2023-02-23T16:03:26.562Z,10.70
2023-02-23T16:06:08.283Z,10.70
2023-02-23T16:08:36.954Z,10.80
2023-02-23T16:11:19.250Z,10.70
2023-02-23T16:13:47.927Z,10.70
2023-02-23T16:16:20.575Z,10.60
2023-02-23T16:18:53.486Z,10.60
2023-02-23T16:21:25.064Z,10.60
2023-02-23T16:23:54.578Z,10.40
2023-02-23T16:26:52.096Z,10.40
2023-02-23T16:29:26.372Z,10.30
2023-02-23T16:32:00.631Z,10.20
2023-02-23T16:34:47.471Z,10.20
2023-02-23T16:37:22.983Z,10.10
2023-02-23T16:39:49.787Z,10.10
2023-02-23T16:42:27.850Z,10.10
2023-02-23T16:44:54.780Z,10.00
2023-02-23T16:47:24.500Z,10.00
2023-02-23T16:49:51.760Z,9.90
2023-02-23T16:52:23.754Z,9.90
2023-02-23T16:54:55.291Z,9.80
2023-02-23T16:57:26.929Z,9.80
2023-02-23T16:59:54.967Z,9.70
2023-02-23T17:02:24.966Z,9.70
2023-02-23T17:04:58.829Z,9.70
2023-02-23T17:07:25.585Z,9.60
2023-02-23T17:09:52.330Z,9.60
2023-02-23T17:12:21.589Z,9.60
2023-02-23T17:14:49.475Z,9.50
2023-02-23T17:17:19.340Z,9.50
2023-02-23T17:19:46.738Z,9.50
2023-02-23T17:22:13.965Z,9.50
2023-02-23T17:24:41.719Z,9.50
2023-02-23T17:27:08.750Z,9.40
2023-02-23T17:29:35.488Z,9.40
2023-02-23T17:32:03.219Z,9.40
2023-02-23T17:34:30.739Z,9.30
2023-02-23T17:36:57.510Z,9.30
2023-02-23T17:39:28.271Z,9.20
2023-02-23T17:41:55.651Z,9.20
2023-02-23T17:44:22.784Z,9.10
2023-02-23T17:46:49.858Z,9.10
2023-02-23T17:49:16.859Z,9.00
2023-02-23T17:51:43.632Z,9.00
2023-02-23T17:54:11.572Z,8.90
2023-02-23T17:56:38.365Z,8.90
2023-02-23T17:59:05.245Z,8.90
2023-02-23T18:01:32.243Z,8.90
2023-02-23T18:04:00.153Z,8.90
2023-02-23T18:06:27.838Z,8.90
2023-02-23T18:08:54.947Z,8.90
2023-02-23T18:11:22.020Z,8.90
2023-02-23T18:13:51.292Z,8.90
2023-02-23T18:16:19.027Z,8.90
2023-02-23T18:18:47.761Z,8.90
2023-02-23T18:21:20.295Z,8.90
2023-02-23T18:23:48.357Z,8.90
2023-02-23T18:26:21.699Z,8.90
2023-02-23T18:28:48.584Z,8.90
2023-02-23T18:31:19.573Z,8.80
2023-02-23T18:33:49.945Z,8.80
2023-02-23T18:36:28.429Z,8.70
2023-02-23T18:38:57.207Z,8.70
2023-02-23T18:41:24.632Z,8.70
2023-02-23T18:43:51.500Z,8.60
2023-02-23T18:46:18.731Z,8.60
2023-02-23T18:48:50.507Z,8.60
2023-02-23T18:51:19.004Z,8.60
2023-02-23T18:53:46.039Z,8.50
2023-02-23T18:56:15.187Z,8.50
2023-02-23T18:58:44.595Z,8.40
2023-02-23T19:01:13.330Z,8.40
2023-02-23T19:03:41.567Z,8.30
2023-02-23T19:06:10.494Z,8.30
2023-02-23T19:08:37.688Z,8.20
2023-02-23T19:11:05.270Z,8.20
2023-02-23T19:13:31.980Z,8.10
2023-02-23T19:16:03.863Z,8.10
2023-02-23T19:18:30.709Z,8.10
2023-02-23T19:20:57.642Z,8.00
2023-02-23T19:23:24.442Z,8.00
2023-02-23T19:25:51.519Z,8.00
2023-02-23T19:28:18.376Z,7.90
2023-02-23T19:30:47.782Z,8.00
2023-02-23T19:33:16.102Z,8.00
2023-02-23T19:35:44.314Z,8.00
2023-02-23T19:38:11.665Z,8.00
2023-02-23T19:40:42.630Z,7.90
2023-02-23T19:43:12.733Z,7.90
2023-02-23T19:45:41.154Z,7.90
2023-02-23T19:48:08.302Z,8.00
2023-02-23T19:50:35.989Z,7.90
2023-02-23T19:53:02.705Z,7.80
2023-02-23T19:55:29.528Z,7.80
2023-02-23T19:57:56.401Z,7.80
2023-02-23T20:00:24.317Z,7.70
2023-02-23T20:02:55.473Z,7.70
2023-02-23T20:05:23.734Z,7.60
2023-02-23T20:07:51.912Z,7.60
2023-02-23T20:10:25.573Z,7.60
2023-02-23T20:12:53.381Z,7.60
2023-02-23T20:15:20.207Z,7.60
2023-02-23T20:17:46.949Z,7.60
2023-02-23T20:20:13.810Z,7.70
2023-02-23T20:22:44.977Z,7.70
2023-02-23T20:25:15.750Z,7.70
2023-02-23T20:27:43.641Z,7.70
2023-02-23T20:30:12.771Z,7.70
2023-02-23T20:32:39.697Z,7.70
2023-02-23T20:35:07.222Z,7.70
2023-02-23T20:37:34.089Z,7.70
2023-02-23T20:40:00.806Z,7.70
2023-02-23T20:42:28.582Z,7.70
2023-02-23T20:44:55.433Z,7.70
2023-02-23T20:47:23.073Z,7.70
2023-02-23T20:49:49.798Z,7.70
2023-02-23T20:52:16.561Z,7.70
2023-02-23T20:54:43.322Z,7.70
2023-02-23T20:57:10.108Z,7.70
2023-02-23T20:59:37.233Z,7.70
2023-02-23T21:02:06.037Z,7.70
2023-02-23T21:04:35.921Z,7.70
2023-02-23T21:07:06.748Z,7.70
2023-02-23T21:09:33.563Z,7.70
2023-02-23T21:12:00.321Z,7.70
2023-02-23T21:14:27.085Z,7.70
2023-02-23T21:16:53.905Z,7.70
2023-02-23T21:19:23.809Z,7.70
2023-02-23T21:21:57.924Z,7.70
2023-02-23T21:24:26.082Z,7.70
2023-02-23T21:26:52.777Z,7.70
2023-02-23T21:29:23.857Z,7.70
2023-02-23T21:31:50.925Z,7.70
2023-02-23T21:34:20.493Z,7.70
2023-02-23T21:36:47.750Z,7.60
2023-02-23T21:39:14.439Z,7.60
2023-02-23T21:41:41.198Z,7.60
2023-02-23T21:44:08.897Z,7.60
2023-02-23T21:46:36.666Z,7.50
2023-02-23T21:49:09.959Z,7.60
2023-02-23T21:51:37.005Z,7.50
2023-02-23T21:54:04.110Z,7.50
2023-02-23T21:56:32.711Z,7.60
2023-02-23T21:58:59.839Z,7.60
2023-02-23T22:01:29.642Z,7.50
2023-02-23T22:03:57.628Z,7.50
2023-02-23T22:06:27.088Z,7.50
2023-02-23T22:08:54.566Z,7.50
2023-02-23T22:11:25.097Z,7.50
2023-02-23T22:14:00.247Z,7.50
2023-02-23T22:16:29.930Z,7.50
2023-02-23T22:18:57.245Z,7.50
2023-02-23T22:21:24.564Z,7.50
2023-02-23T22:23:53.367Z,7.50
2023-02-23T22:26:20.641Z,7.50
2023-02-23T22:28:47.364Z,7.50
2023-02-23T22:31:15.011Z,7.60
2023-02-23T22:33:43.449Z,7.60
2023-02-23T22:36:13.405Z,7.60
2023-02-23T22:38:41.653Z,7.60
2023-02-23T22:41:11.732Z,7.60
2023-02-23T22:43:40.560Z,7.60
2023-02-23T22:46:08.724Z,7.70
2023-02-23T22:48:36.456Z,7.70
2023-02-23T22:51:03.585Z,7.60
2023-02-23T22:53:30.891Z,7.70
2023-02-23T22:55:57.944Z,7.70
2023-02-23T22:58:26.499Z,7.70
2023-02-23T23:01:06.589Z,7.60
2023-02-23T23:03:39.601Z,7.60
2023-02-23T23:06:11.326Z,7.60
2023-02-23T23:08:40.802Z,7.60
2023-02-23T23:11:13.713Z,7.60
2023-02-23T23:13:45.987Z,7.60
2023-02-23T23:16:30.760Z,7.60
2023-02-23T23:19:04.695Z,7.60
2023-02-23T23:21:33.402Z,7.60
2023-02-23T23:24:02.138Z,7.60
2023-02-23T23:26:29.670Z,7.60
2023-02-23T23:28:59.973Z,7.50
2023-02-23T23:31:29.310Z,7.50
2023-02-23T23:34:00.189Z,7.50
2023-02-23T23:36:33.544Z,7.50
2023-02-23T23:39:01.715Z,7.40
2023-02-23T23:41:35.368Z,7.40
2023-02-23T23:44:05.303Z,7.40
2023-02-23T23:46:35.619Z,7.40
2023-02-23T23:49:06.098Z,7.40
2023-02-23T23:51:38.774Z,7.40
2023-02-23T23:54:07.865Z,7.40
2023-02-23T23:56:39.699Z,7.40
2023-02-23T23:59:08.617Z,7.40
